createdAt,value
2022-08-25T00:01:50.018Z,77.89
2022-08-25T00:04:19.884Z,78.11
2022-08-25T00:06:50.268Z,78.06
2022-08-25T00:09:22.437Z,78.18
2022-08-25T00:11:51.026Z,78.84
2022-08-25T00:14:21.520Z,78.41
2022-08-25T00:16:50.101Z,78.75
2022-08-25T00:22:08.993Z,78.99
2022-08-25T00:24:38.910Z,78.97
2022-08-25T00:27:07.630Z,78.78
2022-08-25T00:29:38.248Z,79.00
2022-08-25T00:32:07.328Z,78.86
2022-08-25T00:34:39.658Z,78.92
2022-08-25T00:37:10.559Z,79.25
2022-08-25T00:39:40.907Z,79.05
2022-08-25T00:42:11.911Z,79.13
2022-08-25T00:44:45.293Z,79.04
2022-08-25T00:47:13.872Z,79.15
2022-08-25T00:49:46.097Z,79.27
2022-08-25T00:52:16.010Z,79.64
2022-08-25T00:54:50.268Z,79.40
2022-08-25T00:57:33.875Z,79.30
2022-08-25T01:00:06.920Z,79.11
2022-08-25T01:02:35.405Z,79.13
2022-08-25T01:05:03.599Z,79.07
2022-08-25T01:07:32.075Z,79.26
2022-08-25T01:10:03.283Z,79.17
2022-08-25T01:12:31.674Z,79.10
2022-08-25T01:15:00.405Z,78.96
2022-08-25T01:17:35.338Z,78.83
2022-08-25T01:20:05.055Z,78.76
2022-08-25T01:22:34.730Z,79.00
2022-08-25T01:25:06.390Z,78.89
2022-08-25T01:27:34.961Z,79.03
2022-08-25T01:30:03.090Z,79.07
2022-08-25T01:32:35.067Z,78.85
2022-08-25T01:35:03.276Z,79.03
2022-08-25T01:37:31.719Z,78.89
2022-08-25T01:40:02.382Z,78.54
2022-08-25T01:42:39.738Z,78.52
2022-08-25T01:45:10.398Z,78.54
2022-08-25T01:47:38.857Z,78.70
2022-08-25T01:50:08.261Z,78.61
2022-08-25T01:52:48.070Z,78.81
2022-08-25T01:55:18.234Z,78.89
2022-08-25T01:57:46.639Z,78.84
2022-08-25T02:00:17.528Z,78.97
2022-08-25T02:02:48.027Z,79.16
2022-08-25T02:05:23.743Z,79.48
2022-08-25T02:07:52.224Z,79.47
2022-08-25T02:10:22.516Z,79.31
2022-08-25T02:12:51.777Z,79.57
2022-08-25T02:15:22.843Z,79.52
2022-08-25T02:17:51.027Z,80.03
2022-08-25T02:20:19.142Z,80.19
2022-08-25T02:22:51.189Z,79.99
2022-08-25T02:25:27.032Z,80.18
2022-08-25T02:27:55.522Z,80.15
2022-08-25T02:30:24.233Z,80.32
2022-08-25T02:32:52.869Z,80.32
2022-08-25T02:35:22.078Z,80.40
2022-08-25T02:37:52.241Z,80.24
2022-08-25T02:40:23.510Z,80.29
2022-08-25T02:42:53.178Z,80.20
2022-08-25T02:45:21.338Z,80.41
2022-08-25T02:47:49.731Z,80.21
2022-08-25T02:50:18.146Z,80.29
2022-08-25T02:52:46.431Z,80.15
2022-08-25T02:55:14.759Z,80.10
2022-08-25T02:57:43.890Z,80.14
2022-08-25T03:00:16.597Z,80.04
2022-08-25T03:02:46.711Z,79.78
2022-08-25T03:05:16.429Z,79.93
2022-08-25T03:07:44.771Z,79.79
2022-08-25T03:10:16.972Z,79.76
2022-08-25T03:12:45.635Z,80.38
2022-08-25T03:15:17.530Z,80.03
2022-08-25T03:17:46.446Z,79.92
2022-08-25T03:20:15.643Z,79.76
2022-08-25T03:22:44.281Z,79.95
2022-08-25T03:25:30.243Z,79.44
2022-08-25T03:27:58.591Z,79.72
2022-08-25T03:30:29.645Z,79.56
2022-08-25T03:32:58.119Z,79.50
2022-08-25T03:35:26.305Z,79.57
2022-08-25T03:37:57.924Z,79.47
2022-08-25T03:40:27.031Z,79.42
2022-08-25T03:42:56.899Z,79.50
2022-08-25T03:45:27.302Z,79.41
2022-08-25T03:47:55.714Z,79.31
2022-08-25T03:50:26.324Z,79.42
2022-08-25T03:52:56.089Z,78.90
2022-08-25T03:55:26.707Z,78.98
2022-08-25T03:57:56.289Z,78.75
2022-08-25T04:00:24.833Z,78.73
2022-08-25T04:02:54.564Z,78.77
2022-08-25T04:05:23.199Z,78.69
2022-08-25T04:07:55.470Z,78.50
2022-08-25T04:10:23.608Z,78.30
2022-08-25T04:12:51.831Z,78.43
2022-08-25T04:15:20.211Z,78.42
2022-08-25T04:17:48.889Z,78.47
2022-08-25T04:20:22.140Z,78.20
2022-08-25T04:22:50.345Z,78.27
2022-08-25T04:25:18.572Z,78.04
2022-08-25T04:27:47.087Z,77.94
2022-08-25T04:30:16.311Z,78.14
2022-08-25T04:32:44.543Z,78.24
2022-08-25T04:35:12.829Z,78.08
2022-08-25T04:37:42.418Z,78.03
2022-08-25T04:40:12.247Z,77.95
2022-08-25T04:42:40.507Z,77.89
2022-08-25T04:45:09.872Z,77.59
2022-08-25T04:47:39.924Z,77.85
2022-08-25T04:50:09.481Z,77.88
2022-08-25T04:52:38.645Z,78.05
2022-08-25T04:55:08.948Z,77.89
2022-08-25T04:57:37.543Z,77.84
2022-08-25T05:00:07.399Z,77.71
2022-08-25T05:02:36.043Z,77.48
2022-08-25T05:05:04.359Z,77.25
2022-08-25T05:07:32.461Z,77.11
2022-08-25T05:10:00.655Z,76.88
2022-08-25T05:12:33.029Z,76.81
2022-08-25T05:15:22.062Z,76.88
2022-08-25T05:17:53.926Z,76.82
2022-08-25T05:20:25.479Z,76.88
2022-08-25T05:22:53.819Z,76.56
2022-08-25T05:25:22.099Z,76.53
2022-08-25T05:27:52.343Z,76.64
2022-08-25T05:30:20.559Z,76.60
2022-08-25T05:32:48.849Z,76.38
2022-08-25T05:35:17.441Z,76.43
2022-08-25T05:37:45.792Z,76.34
2022-08-25T05:40:15.124Z,76.35
2022-08-25T05:42:43.310Z,76.71
2022-08-25T05:45:14.840Z,76.56
2022-08-25T05:47:48.916Z,76.69
2022-08-25T05:50:17.458Z,76.96
2022-08-25T05:52:46.831Z,76.65
2022-08-25T05:55:15.639Z,77.16
2022-08-25T05:57:43.936Z,77.07
2022-08-25T06:00:14.638Z,77.01
2022-08-25T06:02:43.742Z,77.13
2022-08-25T06:05:13.739Z,77.13
2022-08-25T06:07:42.054Z,77.03
2022-08-25T06:10:13.436Z,76.93
2022-08-25T06:12:45.557Z,77.07
2022-08-25T06:15:18.293Z,77.11
2022-08-25T06:17:46.637Z,75.74
2022-08-25T06:20:17.309Z,73.04
2022-08-25T06:22:46.207Z,70.26
2022-08-25T06:25:16.745Z,67.72
2022-08-25T06:27:45.651Z,66.10
2022-08-25T06:30:22.459Z,64.77
2022-08-25T06:32:57.112Z,64.34
2022-08-25T06:35:25.266Z,62.39
2022-08-25T06:37:54.382Z,60.47
2022-08-25T06:40:23.150Z,58.67
2022-08-25T06:42:51.385Z,58.03
2022-08-25T06:45:22.557Z,57.55
2022-08-25T06:47:50.967Z,56.92
2022-08-25T06:50:19.758Z,57.08
2022-08-25T06:52:47.874Z,57.42
2022-08-25T06:55:16.371Z,58.47
2022-08-25T06:57:44.539Z,59.70
2022-08-25T07:02:43.558Z,57.26
2022-08-25T07:05:17.068Z,55.13
2022-08-25T07:07:50.858Z,54.41
2022-08-25T07:10:19.562Z,51.77
2022-08-25T07:12:47.781Z,50.42
2022-08-25T07:15:22.955Z,49.00
2022-08-25T07:17:52.587Z,47.30
2022-08-25T07:20:20.848Z,47.57
2022-08-25T07:22:49.805Z,46.82
2022-08-25T07:25:18.146Z,45.25
2022-08-25T07:27:46.746Z,44.91
2022-08-25T07:30:15.405Z,44.23
2022-08-25T07:32:43.587Z,43.39
2022-08-25T07:35:15.680Z,43.94
2022-08-25T07:37:49.966Z,44.02
2022-08-25T07:40:22.621Z,42.86
2022-08-25T07:42:53.502Z,42.17
2022-08-25T07:45:29.572Z,42.07
2022-08-25T07:47:59.711Z,42.27
2022-08-25T07:50:31.374Z,42.08
2022-08-25T07:53:00.254Z,43.44
2022-08-25T07:55:30.561Z,42.91
2022-08-25T07:58:00.779Z,42.65
2022-08-25T08:00:33.388Z,42.95
2022-08-25T08:03:04.412Z,43.23
2022-08-25T08:05:35.435Z,43.00
2022-08-25T08:08:04.107Z,43.01
2022-08-25T08:10:54.093Z,42.17
2022-08-25T08:13:23.713Z,40.70
2022-08-25T08:15:53.574Z,41.32
2022-08-25T08:18:21.885Z,40.22
2022-08-25T08:20:52.079Z,40.48
2022-08-25T08:23:20.868Z,40.37
2022-08-25T08:25:49.233Z,40.21
2022-08-25T08:28:17.525Z,40.99
2022-08-25T08:30:52.767Z,41.00
2022-08-25T08:33:24.340Z,41.09
2022-08-25T08:36:00.077Z,41.39
2022-08-25T08:38:34.753Z,41.06
2022-08-25T08:41:33.874Z,41.58
2022-08-25T08:44:21.526Z,39.97
2022-08-25T08:46:56.628Z,40.21
2022-08-25T08:49:32.161Z,39.32
2022-08-25T08:52:03.475Z,39.73
2022-08-25T08:54:38.267Z,38.67
2022-08-25T08:57:15.458Z,38.48
2022-08-25T08:59:50.335Z,39.26
2022-08-25T09:02:39.142Z,38.46
2022-08-25T09:05:20.038Z,38.00
2022-08-25T09:07:55.007Z,36.13
2022-08-25T09:10:27.411Z,36.15
2022-08-25T09:13:05.773Z,35.99
2022-08-25T09:16:33.779Z,38.15
2022-08-25T09:19:21.279Z,38.50
2022-08-25T09:22:01.171Z,39.71
2022-08-25T09:24:51.812Z,40.75
2022-08-25T09:27:26.807Z,42.78
2022-08-25T09:30:05.569Z,42.22
2022-08-25T09:32:36.682Z,40.95
2022-08-25T09:35:08.875Z,40.88
2022-08-25T09:37:37.236Z,41.80
2022-08-25T09:40:08.202Z,41.59
2022-08-25T09:42:51.338Z,40.72
2022-08-25T09:45:39.434Z,40.80
2022-08-25T09:48:23.784Z,40.93
2022-08-25T09:50:53.116Z,40.18
2022-08-25T09:53:23.695Z,40.74
2022-08-25T09:56:01.089Z,40.47
2022-08-25T09:58:29.674Z,41.78
2022-08-25T10:01:10.953Z,41.30
2022-08-25T10:03:54.906Z,42.10
2022-08-25T10:06:24.338Z,42.74
2022-08-25T10:09:01.112Z,41.89
2022-08-25T10:11:38.360Z,41.73
2022-08-25T10:14:20.459Z,42.76
2022-08-25T10:16:50.003Z,42.26
2022-08-25T10:19:27.565Z,43.57
2022-08-25T10:22:10.957Z,43.17
2022-08-25T10:24:44.218Z,44.60
2022-08-25T10:27:29.234Z,45.08
2022-08-25T10:30:13.733Z,44.66
2022-08-25T10:32:58.953Z,45.31
2022-08-25T10:35:33.081Z,44.44
2022-08-25T10:38:13.474Z,44.31
2022-08-25T10:40:58.143Z,45.51
2022-08-25T10:43:35.181Z,45.29
2022-08-25T10:46:13.600Z,44.79
2022-08-25T10:48:53.787Z,45.43
2022-08-25T10:51:34.226Z,45.79
2022-08-25T10:54:11.539Z,44.62
2022-08-25T10:56:45.354Z,45.26
2022-08-25T10:59:47.464Z,44.72
2022-08-25T11:02:53.567Z,44.88
2022-08-25T11:05:28.315Z,45.22
2022-08-25T11:08:06.881Z,45.69
2022-08-25T11:10:42.941Z,44.88
2022-08-25T11:13:18.925Z,45.59
2022-08-25T11:16:15.910Z,45.02
2022-08-25T11:18:49.463Z,45.36
2022-08-25T11:21:24.604Z,46.23
2022-08-25T11:23:59.603Z,45.96
2022-08-25T11:26:36.835Z,45.10
2022-08-25T11:29:12.106Z,45.04
2022-08-25T11:31:47.325Z,45.67
2022-08-25T11:34:21.458Z,45.86
2022-08-25T11:36:54.061Z,46.50
2022-08-25T11:39:36.207Z,46.21
2022-08-25T11:42:21.377Z,46.71
2022-08-25T11:45:00.091Z,48.35
2022-08-25T11:47:52.221Z,48.43
2022-08-25T11:50:32.238Z,47.24
2022-08-25T11:53:26.751Z,47.63
2022-08-25T11:56:02.538Z,46.50
2022-08-25T11:58:35.379Z,47.50
2022-08-25T12:01:05.748Z,47.35
2022-08-25T12:03:54.622Z,48.33
2022-08-25T12:06:26.561Z,47.28
2022-08-25T12:08:57.732Z,46.57
2022-08-25T12:11:51.374Z,47.20
2022-08-25T12:14:43.308Z,48.69
2022-08-25T12:17:26.451Z,47.32
2022-08-25T12:20:00.140Z,46.36
2022-08-25T12:22:55.265Z,47.09
2022-08-25T12:25:51.520Z,46.33
2022-08-25T12:28:43.454Z,47.39
2022-08-25T12:31:33.235Z,46.38
2022-08-25T12:34:20.152Z,46.58
2022-08-25T12:37:06.187Z,45.34
2022-08-25T12:39:38.307Z,45.85
2022-08-25T12:42:07.255Z,45.83
2022-08-25T12:44:43.406Z,45.12
2022-08-25T12:47:31.978Z,45.42
2022-08-25T12:50:36.504Z,44.38
2022-08-25T12:53:13.813Z,43.22
2022-08-25T12:55:48.750Z,44.30
2022-08-25T12:58:18.089Z,44.35
2022-08-25T13:01:07.654Z,44.79
2022-08-25T13:03:59.437Z,44.71
2022-08-25T13:06:39.649Z,46.16
2022-08-25T13:10:03.128Z,45.96
2022-08-25T13:12:40.736Z,46.24
2022-08-25T13:15:14.438Z,45.62
2022-08-25T13:17:43.018Z,45.21
2022-08-25T13:20:18.985Z,46.26
2022-08-25T13:22:54.006Z,46.65
2022-08-25T13:25:32.138Z,47.18
2022-08-25T13:28:04.672Z,47.31
2022-08-25T13:30:36.592Z,47.99
2022-08-25T13:33:20.108Z,47.34
2022-08-25T13:35:52.356Z,48.49
2022-08-25T13:38:19.967Z,48.74
2022-08-25T13:40:49.690Z,49.84
2022-08-25T13:43:18.890Z,49.88
2022-08-25T13:45:56.814Z,49.23
2022-08-25T13:48:35.617Z,49.33
2022-08-25T13:51:19.707Z,49.01
2022-08-25T13:53:52.212Z,49.06
2022-08-25T13:56:39.978Z,49.35
2022-08-25T13:59:24.133Z,49.70
2022-08-25T14:01:55.156Z,49.84
2022-08-25T14:04:33.194Z,50.17
2022-08-25T14:07:19.641Z,48.97
2022-08-25T14:09:51.784Z,49.21
2022-08-25T14:12:33.252Z,49.31
2022-08-25T14:15:04.617Z,48.68
2022-08-25T14:17:40.179Z,49.18
2022-08-25T14:20:19.415Z,48.21
2022-08-25T14:22:47.895Z,48.58
2022-08-25T14:25:16.357Z,49.31
2022-08-25T14:28:06.811Z,49.46
2022-08-25T14:30:40.210Z,49.98
2022-08-25T14:33:13.008Z,50.82
2022-08-25T14:35:43.148Z,50.87
2022-08-25T14:38:13.144Z,51.08
2022-08-25T14:40:41.765Z,51.35
2022-08-25T14:43:12.472Z,51.54
2022-08-25T14:45:43.236Z,51.20
2022-08-25T14:48:16.451Z,51.40
2022-08-25T14:50:45.427Z,51.12
2022-08-25T14:53:13.652Z,51.57
2022-08-25T14:55:41.941Z,50.68
2022-08-25T14:58:11.610Z,51.57
2022-08-25T15:00:44.599Z,51.94
2022-08-25T15:03:17.563Z,51.79
2022-08-25T15:05:46.311Z,51.05
2022-08-25T15:08:33.622Z,51.18
2022-08-25T15:11:02.053Z,50.71
2022-08-25T15:13:39.112Z,51.05
2022-08-25T15:16:10.518Z,51.17
2022-08-25T15:18:39.409Z,50.74
2022-08-25T15:21:10.303Z,50.98
2022-08-25T15:23:40.098Z,50.43
2022-08-25T15:26:15.454Z,50.50
2022-08-25T15:28:48.447Z,51.24
2022-08-25T15:31:18.201Z,51.36
2022-08-25T15:33:47.286Z,51.95
2022-08-25T15:36:18.174Z,52.41
2022-08-25T15:38:49.204Z,52.63
2022-08-25T15:41:17.946Z,53.44
2022-08-25T15:43:47.634Z,52.75
2022-08-25T15:46:23.956Z,52.49
2022-08-25T15:48:52.301Z,52.49
2022-08-25T15:51:21.386Z,51.67
2022-08-25T15:53:49.658Z,51.90
2022-08-25T15:56:26.724Z,51.90
2022-08-25T15:58:56.982Z,51.67
2022-08-25T16:01:30.539Z,51.20
2022-08-25T16:03:59.576Z,50.59
2022-08-25T16:06:28.358Z,51.15
2022-08-25T16:08:56.878Z,51.71
2022-08-25T16:11:27.840Z,51.80
2022-08-25T16:13:58.859Z,52.10
2022-08-25T16:16:30.290Z,51.80
2022-08-25T16:18:59.775Z,50.77
2022-08-25T16:21:30.729Z,52.04
2022-08-25T16:24:07.275Z,51.63
2022-08-25T16:26:38.256Z,52.45
2022-08-25T16:29:18.203Z,53.12
2022-08-25T16:31:53.383Z,53.05
2022-08-25T16:34:24.788Z,53.21
2022-08-25T16:36:57.021Z,52.80
2022-08-25T16:39:27.538Z,53.01
2022-08-25T16:41:55.898Z,53.04
2022-08-25T16:44:25.963Z,52.75
2022-08-25T16:46:56.034Z,53.98
2022-08-25T16:49:24.757Z,53.60
2022-08-25T16:51:57.254Z,53.51
2022-08-25T16:54:44.881Z,53.51
2022-08-25T16:57:13.479Z,53.34
2022-08-25T16:59:43.938Z,53.40
2022-08-25T17:02:12.620Z,52.99
2022-08-25T17:04:41.185Z,53.11
2022-08-25T17:07:09.449Z,53.06
2022-08-25T17:09:37.830Z,52.88
2022-08-25T17:12:06.408Z,53.00
2022-08-25T17:14:34.742Z,52.32
2022-08-25T17:17:07.112Z,52.50
2022-08-25T17:19:35.828Z,52.07
2022-08-25T17:22:04.083Z,52.55
2022-08-25T17:24:35.080Z,53.26
2022-08-25T17:27:03.846Z,53.44
2022-08-25T17:29:32.629Z,53.52
2022-08-25T17:32:01.088Z,53.99
2022-08-25T17:34:30.857Z,54.07
2022-08-25T17:37:00.238Z,54.64
2022-08-25T17:39:28.992Z,54.27
2022-08-25T17:41:57.400Z,55.21
2022-08-25T17:44:31.151Z,55.33
2022-08-25T17:46:59.719Z,55.97
2022-08-25T17:49:28.629Z,56.08
2022-08-25T17:51:58.957Z,56.61
2022-08-25T17:54:27.285Z,57.01
2022-08-25T17:56:56.372Z,57.46
2022-08-25T17:59:25.227Z,57.73
2022-08-25T18:01:55.362Z,57.84
2022-08-25T18:04:24.107Z,57.90
2022-08-25T18:06:59.412Z,57.84
2022-08-25T18:09:28.495Z,58.30
2022-08-25T18:11:56.607Z,58.39
2022-08-25T18:14:25.722Z,58.40
2022-08-25T18:16:54.459Z,58.97
2022-08-25T18:19:22.955Z,59.33
2022-08-25T18:21:51.861Z,59.53
2022-08-25T18:24:23.700Z,59.39
2022-08-25T18:26:52.131Z,59.83
2022-08-25T18:29:21.273Z,60.21
2022-08-25T18:31:51.800Z,60.33
2022-08-25T18:34:22.229Z,60.44
2022-08-25T18:36:50.692Z,60.77
2022-08-25T18:39:38.953Z,60.83
2022-08-25T18:42:08.555Z,61.31
2022-08-25T18:44:37.028Z,61.77
2022-08-25T18:47:07.406Z,61.65
2022-08-25T18:49:37.182Z,62.03
2022-08-25T18:52:07.436Z,62.33
2022-08-25T18:54:37.437Z,62.48
2022-08-25T18:57:08.128Z,62.62
2022-08-25T18:59:36.633Z,62.85
2022-08-25T19:02:05.234Z,63.00
2022-08-25T19:04:33.912Z,63.30
2022-08-25T19:07:03.034Z,63.28
2022-08-25T19:09:32.144Z,63.50
2022-08-25T19:12:03.430Z,63.75
2022-08-25T19:14:32.018Z,64.07
2022-08-25T19:17:00.980Z,64.23
2022-08-25T19:19:29.675Z,64.35
2022-08-25T19:21:58.204Z,64.34
2022-08-25T19:24:29.892Z,64.72
2022-08-25T19:27:02.434Z,64.80
2022-08-25T19:29:32.668Z,64.83
2022-08-25T19:32:02.059Z,65.19
2022-08-25T19:34:36.154Z,64.94
2022-08-25T19:37:05.698Z,65.45
2022-08-25T19:39:39.251Z,65.46
2022-08-25T19:42:08.701Z,65.87
2022-08-25T19:44:58.987Z,65.66
2022-08-25T19:47:28.028Z,65.97
2022-08-25T19:49:56.272Z,65.92
2022-08-25T19:52:26.507Z,66.04
2022-08-25T19:54:55.076Z,66.17
2022-08-25T19:57:28.644Z,66.21
2022-08-25T20:00:18.205Z,66.37
2022-08-25T20:02:47.448Z,66.63
2022-08-25T20:05:23.812Z,66.70
2022-08-25T20:07:53.671Z,66.81
2022-08-25T20:10:23.584Z,66.87
2022-08-25T20:12:51.929Z,66.88
2022-08-25T20:15:23.586Z,67.01
2022-08-25T20:17:51.880Z,67.07
2022-08-25T20:20:25.604Z,67.27
2022-08-25T20:23:14.921Z,67.47
2022-08-25T20:25:44.266Z,67.62
2022-08-25T20:28:13.319Z,67.65
2022-08-25T20:30:48.991Z,67.82
2022-08-25T20:33:22.615Z,67.96
2022-08-25T20:35:53.068Z,67.94
2022-08-25T20:38:21.631Z,67.97
2022-08-25T20:40:49.881Z,68.24
2022-08-25T20:43:18.637Z,68.12
2022-08-25T20:45:50.596Z,68.29
2022-08-25T20:48:18.905Z,68.48
2022-08-25T20:50:54.471Z,68.63
2022-08-25T20:53:26.622Z,68.63
2022-08-25T20:55:55.219Z,68.66
2022-08-25T20:58:23.645Z,68.70
2022-08-25T21:00:55.456Z,68.88
2022-08-25T21:03:24.079Z,68.91
2022-08-25T21:05:54.006Z,68.88
2022-08-25T21:08:23.613Z,68.92
2022-08-25T21:10:52.088Z,68.91
2022-08-25T21:13:21.478Z,68.95
2022-08-25T21:15:51.163Z,69.25
2022-08-25T21:18:21.776Z,69.13
2022-08-25T21:20:50.212Z,69.17
2022-08-25T21:23:18.346Z,69.08
2022-08-25T21:25:46.735Z,68.89
2022-08-25T21:28:15.063Z,69.09
2022-08-25T21:30:44.767Z,69.18
2022-08-25T21:33:15.707Z,69.01
2022-08-25T21:35:46.843Z,68.94
2022-08-25T21:38:15.638Z,68.91
2022-08-25T21:40:45.039Z,69.01
2022-08-25T21:43:13.452Z,69.11
2022-08-25T21:45:46.583Z,68.90
2022-08-25T21:48:15.694Z,69.14
2022-08-25T21:50:45.413Z,69.04
2022-08-25T21:53:13.712Z,68.99
2022-08-25T21:55:44.363Z,69.26
2022-08-25T21:58:13.171Z,69.34
2022-08-25T22:00:41.752Z,69.15
2022-08-25T22:03:09.965Z,69.33
2022-08-25T22:05:39.452Z,69.39
2022-08-25T22:08:10.467Z,69.36
2022-08-25T22:10:44.542Z,69.42
2022-08-25T22:13:12.873Z,69.53
2022-08-25T22:15:41.825Z,69.85
2022-08-25T22:18:10.123Z,69.87
2022-08-25T22:20:39.179Z,69.83
2022-08-25T22:23:20.242Z,69.83
2022-08-25T22:25:50.356Z,69.83
2022-08-25T22:28:19.102Z,69.88
2022-08-25T22:30:47.637Z,69.81
2022-08-25T22:33:16.168Z,69.89
2022-08-25T22:35:45.061Z,69.94
2022-08-25T22:38:14.974Z,69.90
2022-08-25T22:40:43.797Z,70.04
2022-08-25T22:43:12.046Z,70.15
2022-08-25T22:45:40.687Z,70.55
2022-08-25T22:48:09.224Z,70.35
2022-08-25T22:50:38.553Z,70.46
2022-08-25T22:53:06.844Z,70.58
2022-08-25T22:55:43.256Z,70.40
2022-08-25T22:58:12.145Z,70.81
2022-08-25T23:00:42.333Z,70.70
2022-08-25T23:03:11.118Z,70.60
2022-08-25T23:05:40.789Z,70.57
2022-08-25T23:08:09.926Z,70.74
2022-08-25T23:10:39.629Z,70.63
2022-08-25T23:13:07.960Z,71.09
2022-08-25T23:15:36.327Z,70.94
2022-08-25T23:18:05.261Z,70.91
2022-08-25T23:20:50.782Z,70.72
2022-08-25T23:23:19.005Z,70.70
2022-08-25T23:25:48.653Z,70.71
2022-08-25T23:28:16.987Z,70.90
2022-08-25T23:30:45.576Z,70.67
2022-08-25T23:33:27.038Z,70.58
2022-08-25T23:35:59.560Z,70.60
2022-08-25T23:38:28.575Z,70.58
2022-08-25T23:40:58.668Z,70.55
2022-08-25T23:43:28.186Z,70.70
2022-08-25T23:45:56.964Z,70.71
2022-08-25T23:48:26.866Z,70.79
2022-08-25T23:50:55.242Z,70.47
2022-08-25T23:53:23.513Z,70.53
2022-08-25T23:55:53.050Z,70.32
2022-08-25T23:58:24.077Z,70.05
